sensor_id;sensor_type;location;lat;lon;timestamp;P1;durP1;ratioP1;P2;durP2;ratioP2
76417;SDS011;65250;47.602;19.002;2023-11-21T00:00:55;2.60;;;1.48;;
76417;SDS011;65250;47.602;19.002;2023-11-21T00:03:23;3.33;;;1.50;;
76417;SDS011;65250;47.602;19.002;2023-11-21T00:05:59;5.57;;;1.67;;
76417;SDS011;65250;47.602;19.002;2023-11-21T00:08:30;3.65;;;1.95;;
76417;SDS011;65250;47.602;19.002;2023-11-21T00:10:57;6.13;;;1.85;;
76417;SDS011;65250;47.602;19.002;2023-11-21T00:13:28;5.82;;;2.08;;
76417;SDS011;65250;47.602;19.002;2023-11-21T00:15:59;5.15;;;2.13;;
76417;SDS011;65250;47.602;19.002;2023-11-21T00:18:26;3.10;;;1.58;;
76417;SDS011;65250;47.602;19.002;2023-11-21T00:20:53;3.53;;;1.90;;
76417;SDS011;65250;47.602;19.002;2023-11-21T00:23:20;4.53;;;2.00;;
76417;SDS011;65250;47.602;19.002;2023-11-21T00:25:47;4.65;;;2.40;;
76417;SDS011;65250;47.602;19.002;2023-11-21T00:28:17;5.47;;;2.63;;
76417;SDS011;65250;47.602;19.002;2023-11-21T00:30:44;5.95;;;2.50;;
76417;SDS011;65250;47.602;19.002;2023-11-21T00:33:12;6.97;;;2.38;;
76417;SDS011;65250;47.602;19.002;2023-11-21T00:35:39;9.30;;;2.28;;
76417;SDS011;65250;47.602;19.002;2023-11-21T00:38:06;6.97;;;2.67;;
76417;SDS011;65250;47.602;19.002;2023-11-21T00:40:38;4.75;;;2.45;;
76417;SDS011;65250;47.602;19.002;2023-11-21T00:43:06;5.40;;;2.50;;
76417;SDS011;65250;47.602;19.002;2023-11-21T00:45:33;7.95;;;2.85;;
76417;SDS011;65250;47.602;19.002;2023-11-21T00:48:03;6.25;;;2.60;;
76417;SDS011;65250;47.602;19.002;2023-11-21T00:50:32;7.53;;;2.63;;
76417;SDS011;65250;47.602;19.002;2023-11-21T00:53:04;6.93;;;3.03;;
76417;SDS011;65250;47.602;19.002;2023-11-21T00:55:32;6.97;;;2.65;;
76417;SDS011;65250;47.602;19.002;2023-11-21T00:58:03;9.13;;;2.78;;
76417;SDS011;65250;47.602;19.002;2023-11-21T01:00:31;7.50;;;2.38;;
76417;SDS011;65250;47.602;19.002;2023-11-21T01:02:59;5.72;;;2.20;;
76417;SDS011;65250;47.602;19.002;2023-11-21T01:05:29;7.13;;;2.67;;
76417;SDS011;65250;47.602;19.002;2023-11-21T01:08:01;4.47;;;2.40;;
76417;SDS011;65250;47.602;19.002;2023-11-21T01:10:30;4.30;;;1.90;;
76417;SDS011;65250;47.602;19.002;2023-11-21T01:12:57;4.60;;;2.08;;
76417;SDS011;65250;47.602;19.002;2023-11-21T01:15:24;5.57;;;2.78;;
76417;SDS011;65250;47.602;19.002;2023-11-21T01:18:00;5.63;;;2.70;;
76417;SDS011;65250;47.602;19.002;2023-11-21T01:20:27;7.75;;;2.35;;
76417;SDS011;65250;47.602;19.002;2023-11-21T01:22:57;6.85;;;2.47;;
76417;SDS011;65250;47.602;19.002;2023-11-21T01:25:24;7.95;;;3.22;;
76417;SDS011;65250;47.602;19.002;2023-11-21T01:27:54;5.55;;;2.50;;
76417;SDS011;65250;47.602;19.002;2023-11-21T01:30:22;5.03;;;2.35;;
76417;SDS011;65250;47.602;19.002;2023-11-21T01:32:59;4.28;;;2.50;;
76417;SDS011;65250;47.602;19.002;2023-11-21T01:35:26;7.85;;;2.70;;
76417;SDS011;65250;47.602;19.002;2023-11-21T01:37:58;6.20;;;2.20;;
76417;SDS011;65250;47.602;19.002;2023-11-21T01:40:25;6.97;;;2.60;;
76417;SDS011;65250;47.602;19.002;2023-11-21T01:42:54;7.03;;;2.90;;
76417;SDS011;65250;47.602;19.002;2023-11-21T01:45:21;8.60;;;2.58;;
76417;SDS011;65250;47.602;19.002;2023-11-21T01:47:48;5.80;;;2.40;;
76417;SDS011;65250;47.602;19.002;2023-11-21T01:50:18;10.38;;;3.20;;
76417;SDS011;65250;47.602;19.002;2023-11-21T01:52:46;4.97;;;2.30;;
76417;SDS011;65250;47.602;19.002;2023-11-21T01:55:14;6.85;;;2.40;;
76417;SDS011;65250;47.602;19.002;2023-11-21T01:57:54;5.85;;;2.42;;
76417;SDS011;65250;47.602;19.002;2023-11-21T02:00:24;5.03;;;2.70;;
76417;SDS011;65250;47.602;19.002;2023-11-21T02:02:52;5.03;;;2.53;;
76417;SDS011;65250;47.602;19.002;2023-11-21T02:05:24;5.18;;;2.80;;
76417;SDS011;65250;47.602;19.002;2023-11-21T02:07:53;10.75;;;3.05;;
76417;SDS011;65250;47.602;19.002;2023-11-21T02:10:22;6.18;;;2.25;;
76417;SDS011;65250;47.602;19.002;2023-11-21T02:12:53;9.15;;;2.47;;
76417;SDS011;65250;47.602;19.002;2023-11-21T02:15:20;8.90;;;2.70;;
76417;SDS011;65250;47.602;19.002;2023-11-21T02:17:49;7.88;;;2.95;;
76417;SDS011;65250;47.602;19.002;2023-11-21T02:20:22;6.13;;;2.60;;
76417;SDS011;65250;47.602;19.002;2023-11-21T02:22:55;8.63;;;3.00;;
76417;SDS011;65250;47.602;19.002;2023-11-21T02:25:31;4.50;;;2.65;;
76417;SDS011;65250;47.602;19.002;2023-11-21T02:28:01;5.38;;;2.72;;
76417;SDS011;65250;47.602;19.002;2023-11-21T02:30:30;6.65;;;2.63;;
76417;SDS011;65250;47.602;19.002;2023-11-21T02:32:59;4.15;;;2.30;;
76417;SDS011;65250;47.602;19.002;2023-11-21T02:35:28;9.85;;;2.65;;
76417;SDS011;65250;47.602;19.002;2023-11-21T02:37:59;8.32;;;3.00;;
76417;SDS011;65250;47.602;19.002;2023-11-21T02:40:31;5.57;;;2.97;;
76417;SDS011;65250;47.602;19.002;2023-11-21T02:43:00;6.70;;;2.80;;
76417;SDS011;65250;47.602;19.002;2023-11-21T02:45:35;6.22;;;2.60;;
76417;SDS011;65250;47.602;19.002;2023-11-21T02:48:03;6.47;;;2.90;;
76417;SDS011;65250;47.602;19.002;2023-11-21T02:50:35;3.78;;;2.20;;
76417;SDS011;65250;47.602;19.002;2023-11-21T02:53:03;6.00;;;2.95;;
76417;SDS011;65250;47.602;19.002;2023-11-21T02:55:32;5.63;;;3.13;;
76417;SDS011;65250;47.602;19.002;2023-11-21T02:58:05;5.07;;;3.08;;
76417;SDS011;65250;47.602;19.002;2023-11-21T03:00:34;5.15;;;2.50;;
76417;SDS011;65250;47.602;19.002;2023-11-21T03:03:12;6.80;;;2.95;;
76417;SDS011;65250;47.602;19.002;2023-11-21T03:05:45;6.95;;;3.03;;
76417;SDS011;65250;47.602;19.002;2023-11-21T03:08:13;4.07;;;2.53;;
76417;SDS011;65250;47.602;19.002;2023-11-21T03:10:41;5.28;;;2.80;;
76417;SDS011;65250;47.602;19.002;2023-11-21T03:13:18;6.95;;;3.00;;
76417;SDS011;65250;47.602;19.002;2023-11-21T03:15:46;5.43;;;2.88;;
76417;SDS011;65250;47.602;19.002;2023-11-21T03:18:14;4.82;;;2.40;;
76417;SDS011;65250;47.602;19.002;2023-11-21T03:20:43;4.70;;;2.67;;
76417;SDS011;65250;47.602;19.002;2023-11-21T03:23:21;6.65;;;2.97;;
76417;SDS011;65250;47.602;19.002;2023-11-21T03:25:59;5.55;;;2.90;;
76417;SDS011;65250;47.602;19.002;2023-11-21T03:28:26;6.28;;;2.60;;
76417;SDS011;65250;47.602;19.002;2023-11-21T03:30:54;6.75;;;3.03;;
76417;SDS011;65250;47.602;19.002;2023-11-21T03:33:26;10.07;;;2.83;;
76417;SDS011;65250;47.602;19.002;2023-11-21T03:36:00;5.15;;;2.63;;
76417;SDS011;65250;47.602;19.002;2023-11-21T03:38:30;5.68;;;2.78;;
76417;SDS011;65250;47.602;19.002;2023-11-21T03:41:00;7.25;;;3.22;;
76417;SDS011;65250;47.602;19.002;2023-11-21T03:43:29;3.47;;;2.35;;
76417;SDS011;65250;47.602;19.002;2023-11-21T03:46:00;4.15;;;2.17;;
76417;SDS011;65250;47.602;19.002;2023-11-21T03:48:27;5.70;;;2.47;;
76417;SDS011;65250;47.602;19.002;2023-11-21T03:50:54;6.45;;;2.65;;
76417;SDS011;65250;47.602;19.002;2023-11-21T03:53:27;3.28;;;2.33;;
76417;SDS011;65250;47.602;19.002;2023-11-21T03:56:08;7.80;;;2.40;;
76417;SDS011;65250;47.602;19.002;2023-11-21T03:58:59;6.72;;;2.70;;
76417;SDS011;65250;47.602;19.002;2023-11-21T04:01:33;5.03;;;1.90;;
76417;SDS011;65250;47.602;19.002;2023-11-21T04:04:01;6.20;;;2.60;;
76417;SDS011;65250;47.602;19.002;2023-11-21T04:06:29;8.10;;;2.40;;
76417;SDS011;65250;47.602;19.002;2023-11-21T04:08:57;3.00;;;2.00;;
76417;SDS011;65250;47.602;19.002;2023-11-21T04:11:44;7.95;;;2.38;;
76417;SDS011;65250;47.602;19.002;2023-11-21T04:14:22;2.97;;;2.03;;
76417;SDS011;65250;47.602;19.002;2023-11-21T04:17:01;4.53;;;2.22;;
76417;SDS011;65250;47.602;19.002;2023-11-21T04:19:31;6.10;;;1.92;;
76417;SDS011;65250;47.602;19.002;2023-11-21T04:22:16;6.10;;;2.30;;
76417;SDS011;65250;47.602;19.002;2023-11-21T04:24:46;6.85;;;2.28;;
76417;SDS011;65250;47.602;19.002;2023-11-21T04:27:22;4.38;;;2.08;;
76417;SDS011;65250;47.602;19.002;2023-11-21T04:29:52;6.18;;;2.45;;
76417;SDS011;65250;47.602;19.002;2023-11-21T04:32:30;4.25;;;2.60;;
76417;SDS011;65250;47.602;19.002;2023-11-21T04:35:01;5.63;;;2.65;;
76417;SDS011;65250;47.602;19.002;2023-11-21T04:37:29;4.38;;;2.80;;
76417;SDS011;65250;47.602;19.002;2023-11-21T04:39:56;8.23;;;3.53;;
76417;SDS011;65250;47.602;19.002;2023-11-21T04:42:27;7.75;;;4.20;;
76417;SDS011;65250;47.602;19.002;2023-11-21T04:45:00;6.47;;;3.92;;
76417;SDS011;65250;47.602;19.002;2023-11-21T04:47:37;6.28;;;3.10;;
76417;SDS011;65250;47.602;19.002;2023-11-21T04:50:07;4.38;;;2.88;;
76417;SDS011;65250;47.602;19.002;2023-11-21T04:52:37;8.75;;;2.92;;
76417;SDS011;65250;47.602;19.002;2023-11-21T04:55:10;4.15;;;2.60;;
76417;SDS011;65250;47.602;19.002;2023-11-21T04:57:46;9.52;;;2.60;;
76417;SDS011;65250;47.602;19.002;2023-11-21T05:00:14;10.75;;;2.97;;
76417;SDS011;65250;47.602;19.002;2023-11-21T05:02:48;9.20;;;2.70;;
76417;SDS011;65250;47.602;19.002;2023-11-21T05:05:17;8.52;;;2.92;;
76417;SDS011;65250;47.602;19.002;2023-11-21T05:07:46;5.88;;;2.17;;
76417;SDS011;65250;47.602;19.002;2023-11-21T05:10:14;5.28;;;2.50;;
76417;SDS011;65250;47.602;19.002;2023-11-21T05:12:43;5.18;;;2.17;;
76417;SDS011;65250;47.602;19.002;2023-11-21T05:15:16;5.65;;;2.53;;
76417;SDS011;65250;47.602;19.002;2023-11-21T05:17:47;8.27;;;2.90;;
76417;SDS011;65250;47.602;19.002;2023-11-21T05:20:18;8.65;;;2.80;;
76417;SDS011;65250;47.602;19.002;2023-11-21T05:22:49;8.13;;;2.53;;
76417;SDS011;65250;47.602;19.002;2023-11-21T05:25:17;6.28;;;2.63;;
76417;SDS011;65250;47.602;19.002;2023-11-21T05:27:46;6.22;;;2.55;;
76417;SDS011;65250;47.602;19.002;2023-11-21T05:30:17;5.88;;;2.65;;
76417;SDS011;65250;47.602;19.002;2023-11-21T05:32:47;5.80;;;2.42;;
76417;SDS011;65250;47.602;19.002;2023-11-21T05:35:16;3.25;;;2.17;;
76417;SDS011;65250;47.602;19.002;2023-11-21T05:37:47;7.95;;;2.95;;
76417;SDS011;65250;47.602;19.002;2023-11-21T05:40:16;6.38;;;2.55;;
76417;SDS011;65250;47.602;19.002;2023-11-21T05:42:44;4.57;;;2.42;;
76417;SDS011;65250;47.602;19.002;2023-11-21T05:45:13;5.78;;;3.10;;
76417;SDS011;65250;47.602;19.002;2023-11-21T05:47:43;5.90;;;2.92;;
76417;SDS011;65250;47.602;19.002;2023-11-21T05:50:16;5.22;;;3.00;;
76417;SDS011;65250;47.602;19.002;2023-11-21T05:52:50;10.55;;;3.53;;
76417;SDS011;65250;47.602;19.002;2023-11-21T05:55:25;5.05;;;2.67;;
76417;SDS011;65250;47.602;19.002;2023-11-21T05:57:55;7.10;;;3.05;;
76417;SDS011;65250;47.602;19.002;2023-11-21T06:00:26;7.20;;;2.50;;
76417;SDS011;65250;47.602;19.002;2023-11-21T06:02:54;5.47;;;2.42;;
76417;SDS011;65250;47.602;19.002;2023-11-21T06:05:22;3.67;;;2.40;;
76417;SDS011;65250;47.602;19.002;2023-11-21T06:07:54;6.95;;;2.97;;
76417;SDS011;65250;47.602;19.002;2023-11-21T06:10:39;7.05;;;3.25;;
76417;SDS011;65250;47.602;19.002;2023-11-21T06:13:06;10.80;;;4.22;;
76417;SDS011;65250;47.602;19.002;2023-11-21T06:15:36;9.20;;;4.40;;
76417;SDS011;65250;47.602;19.002;2023-11-21T06:18:07;11.35;;;5.18;;
76417;SDS011;65250;47.602;19.002;2023-11-21T06:20:45;12.38;;;4.90;;
76417;SDS011;65250;47.602;19.002;2023-11-21T06:23:22;7.97;;;4.13;;
76417;SDS011;65250;47.602;19.002;2023-11-21T06:26:04;8.82;;;4.40;;
76417;SDS011;65250;47.602;19.002;2023-11-21T06:28:38;9.02;;;4.97;;
76417;SDS011;65250;47.602;19.002;2023-11-21T06:31:26;10.57;;;4.65;;
76417;SDS011;65250;47.602;19.002;2023-11-21T06:33:55;10.93;;;3.63;;
76417;SDS011;65250;47.602;19.002;2023-11-21T06:36:28;11.85;;;5.63;;
76417;SDS011;65250;47.602;19.002;2023-11-21T06:38:57;21.10;;;7.82;;
76417;SDS011;65250;47.602;19.002;2023-11-21T06:41:28;20.10;;;9.30;;
76417;SDS011;65250;47.602;19.002;2023-11-21T06:44:02;22.98;;;9.57;;
76417;SDS011;65250;47.602;19.002;2023-11-21T06:46:34;15.98;;;6.55;;
76417;SDS011;65250;47.602;19.002;2023-11-21T06:49:09;14.55;;;5.78;;
76417;SDS011;65250;47.602;19.002;2023-11-21T06:51:48;14.27;;;4.97;;
76417;SDS011;65250;47.602;19.002;2023-11-21T06:54:27;16.85;;;5.32;;
76417;SDS011;65250;47.602;19.002;2023-11-21T06:57:05;9.43;;;3.63;;
76417;SDS011;65250;47.602;19.002;2023-11-21T06:59:38;8.95;;;2.67;;
76417;SDS011;65250;47.602;19.002;2023-11-21T07:02:08;7.43;;;2.67;;
76417;SDS011;65250;47.602;19.002;2023-11-21T07:04:39;6.18;;;2.42;;
76417;SDS011;65250;47.602;19.002;2023-11-21T07:07:11;7.80;;;2.90;;
76417;SDS011;65250;47.602;19.002;2023-11-21T07:10:01;5.40;;;2.95;;
76417;SDS011;65250;47.602;19.002;2023-11-21T07:12:34;6.68;;;1.90;;
76417;SDS011;65250;47.602;19.002;2023-11-21T07:15:07;3.95;;;1.83;;
76417;SDS011;65250;47.602;19.002;2023-11-21T07:17:44;6.35;;;1.92;;
76417;SDS011;65250;47.602;19.002;2023-11-21T07:20:31;7.20;;;1.40;;
76417;SDS011;65250;47.602;19.002;2023-11-21T07:23:02;6.85;;;1.35;;
76417;SDS011;65250;47.602;19.002;2023-11-21T07:25:31;3.05;;;1.40;;
76417;SDS011;65250;47.602;19.002;2023-11-21T07:28:00;3.28;;;1.50;;
76417;SDS011;65250;47.602;19.002;2023-11-21T07:30:27;7.18;;;1.58;;
76417;SDS011;65250;47.602;19.002;2023-11-21T07:32:55;5.57;;;2.40;;
76417;SDS011;65250;47.602;19.002;2023-11-21T07:35:22;8.80;;;3.17;;
76417;SDS011;65250;47.602;19.002;2023-11-21T07:37:50;8.50;;;3.70;;
76417;SDS011;65250;47.602;19.002;2023-11-21T07:40:21;6.90;;;2.03;;
76417;SDS011;65250;47.602;19.002;2023-11-21T07:42:49;5.15;;;2.05;;
76417;SDS011;65250;47.602;19.002;2023-11-21T07:45:17;5.05;;;1.90;;
76417;SDS011;65250;47.602;19.002;2023-11-21T07:47:48;4.97;;;2.20;;
76417;SDS011;65250;47.602;19.002;2023-11-21T07:50:18;4.28;;;1.92;;
76417;SDS011;65250;47.602;19.002;2023-11-21T07:52:58;4.03;;;1.60;;
76417;SDS011;65250;47.602;19.002;2023-11-21T07:55:40;6.03;;;1.60;;
76417;SDS011;65250;47.602;19.002;2023-11-21T07:58:08;7.53;;;1.83;;
76417;SDS011;65250;47.602;19.002;2023-11-21T08:00:40;4.97;;;1.67;;
76417;SDS011;65250;47.602;19.002;2023-11-21T08:03:08;5.75;;;2.50;;
76417;SDS011;65250;47.602;19.002;2023-11-21T08:05:45;7.45;;;2.25;;
76417;SDS011;65250;47.602;19.002;2023-11-21T08:08:12;4.20;;;1.35;;
76417;SDS011;65250;47.602;19.002;2023-11-21T08:10:41;7.10;;;2.08;;
76417;SDS011;65250;47.602;19.002;2023-11-21T08:13:13;7.55;;;2.03;;
76417;SDS011;65250;47.602;19.002;2023-11-21T08:15:47;4.22;;;1.95;;
76417;SDS011;65250;47.602;19.002;2023-11-21T08:18:19;7.85;;;2.10;;
76417;SDS011;65250;47.602;19.002;2023-11-21T08:20:48;5.30;;;1.98;;
76417;SDS011;65250;47.602;19.002;2023-11-21T08:23:16;4.53;;;1.90;;
76417;SDS011;65250;47.602;19.002;2023-11-21T08:25:46;6.28;;;1.70;;
76417;SDS011;65250;47.602;19.002;2023-11-21T08:28:16;10.32;;;1.95;;
76417;SDS011;65250;47.602;19.002;2023-11-21T08:30:46;7.97;;;2.38;;
76417;SDS011;65250;47.602;19.002;2023-11-21T08:33:22;4.00;;;1.02;;
76417;SDS011;65250;47.602;19.002;2023-11-21T08:35:51;4.70;;;1.00;;
76417;SDS011;65250;47.602;19.002;2023-11-21T08:38:19;4.45;;;1.33;;
76417;SDS011;65250;47.602;19.002;2023-11-21T08:40:51;3.60;;;0.98;;
76417;SDS011;65250;47.602;19.002;2023-11-21T08:43:18;3.55;;;1.30;;
76417;SDS011;65250;47.602;19.002;2023-11-21T08:45:46;4.00;;;1.42;;
76417;SDS011;65250;47.602;19.002;2023-11-21T08:48:17;3.85;;;1.65;;
76417;SDS011;65250;47.602;19.002;2023-11-21T08:50:45;9.85;;;1.75;;
76417;SDS011;65250;47.602;19.002;2023-11-21T08:53:17;3.42;;;1.70;;
76417;SDS011;65250;47.602;19.002;2023-11-21T08:55:44;7.78;;;1.52;;
76417;SDS011;65250;47.602;19.002;2023-11-21T08:58:12;6.47;;;1.85;;
76417;SDS011;65250;47.602;19.002;2023-11-21T09:00:49;3.50;;;1.13;;
76417;SDS011;65250;47.602;19.002;2023-11-21T09:03:17;5.43;;;1.30;;
76417;SDS011;65250;47.602;19.002;2023-11-21T09:05:46;7.90;;;1.42;;
76417;SDS011;65250;47.602;19.002;2023-11-21T09:08:20;3.33;;;1.17;;
76417;SDS011;65250;47.602;19.002;2023-11-21T09:10:54;1.92;;;1.02;;
76417;SDS011;65250;47.602;19.002;2023-11-21T09:13:21;5.03;;;1.60;;
76417;SDS011;65250;47.602;19.002;2023-11-21T09:15:51;5.13;;;1.88;;
76417;SDS011;65250;47.602;19.002;2023-11-21T09:18:19;3.17;;;1.55;;
76417;SDS011;65250;47.602;19.002;2023-11-21T09:20:47;5.22;;;1.45;;
76417;SDS011;65250;47.602;19.002;2023-11-21T09:23:17;3.85;;;1.90;;
76417;SDS011;65250;47.602;19.002;2023-11-21T09:25:47;4.70;;;1.63;;
76417;SDS011;65250;47.602;19.002;2023-11-21T09:28:16;5.25;;;2.05;;
76417;SDS011;65250;47.602;19.002;2023-11-21T09:30:44;4.45;;;1.48;;
76417;SDS011;65250;47.602;19.002;2023-11-21T09:33:29;7.07;;;1.25;;
76417;SDS011;65250;47.602;19.002;2023-11-21T09:35:58;4.85;;;1.85;;
76417;SDS011;65250;47.602;19.002;2023-11-21T09:38:27;3.05;;;1.40;;
76417;SDS011;65250;47.602;19.002;2023-11-21T09:40:56;3.53;;;1.42;;
76417;SDS011;65250;47.602;19.002;2023-11-21T09:43:24;5.13;;;1.40;;
76417;SDS011;65250;47.602;19.002;2023-11-21T09:46:01;3.00;;;1.17;;
76417;SDS011;65250;47.602;19.002;2023-11-21T09:48:31;5.60;;;1.48;;
76417;SDS011;65250;47.602;19.002;2023-11-21T09:51:02;8.23;;;1.70;;
76417;SDS011;65250;47.602;19.002;2023-11-21T09:53:30;3.47;;;1.60;;
76417;SDS011;65250;47.602;19.002;2023-11-21T09:55:59;3.45;;;1.55;;
76417;SDS011;65250;47.602;19.002;2023-11-21T09:58:29;3.75;;;1.42;;
76417;SDS011;65250;47.602;19.002;2023-11-21T10:00:57;5.35;;;1.90;;
76417;SDS011;65250;47.602;19.002;2023-11-21T10:03:26;3.08;;;1.50;;
76417;SDS011;65250;47.602;19.002;2023-11-21T10:05:53;5.30;;;2.10;;
76417;SDS011;65250;47.602;19.002;2023-11-21T10:08:27;6.47;;;2.35;;
76417;SDS011;65250;47.602;19.002;2023-11-21T10:11:13;4.88;;;2.22;;
76417;SDS011;65250;47.602;19.002;2023-11-21T10:13:42;7.38;;;2.63;;
76417;SDS011;65250;47.602;19.002;2023-11-21T10:16:14;5.85;;;2.20;;
76417;SDS011;65250;47.602;19.002;2023-11-21T10:18:50;5.47;;;2.10;;
76417;SDS011;65250;47.602;19.002;2023-11-21T10:21:19;6.15;;;1.70;;
76417;SDS011;65250;47.602;19.002;2023-11-21T10:23:50;6.13;;;1.70;;
76417;SDS011;65250;47.602;19.002;2023-11-21T10:26:19;5.95;;;1.80;;
76417;SDS011;65250;47.602;19.002;2023-11-21T10:29:00;5.28;;;1.92;;
76417;SDS011;65250;47.602;19.002;2023-11-21T10:31:33;4.22;;;2.17;;
76417;SDS011;65250;47.602;19.002;2023-11-21T10:34:19;4.55;;;2.22;;
76417;SDS011;65250;47.602;19.002;2023-11-21T10:36:47;4.90;;;2.15;;
76417;SDS011;65250;47.602;19.002;2023-11-21T10:39:19;8.85;;;2.22;;
76417;SDS011;65250;47.602;19.002;2023-11-21T10:42:08;7.90;;;2.25;;
76417;SDS011;65250;47.602;19.002;2023-11-21T10:44:41;7.50;;;3.08;;
76417;SDS011;65250;47.602;19.002;2023-11-21T10:47:13;5.00;;;2.30;;
76417;SDS011;65250;47.602;19.002;2023-11-21T10:49:48;5.63;;;2.15;;
76417;SDS011;65250;47.602;19.002;2023-11-21T10:52:26;5.18;;;2.22;;
76417;SDS011;65250;47.602;19.002;2023-11-21T10:54:57;6.07;;;2.22;;
76417;SDS011;65250;47.602;19.002;2023-11-21T10:57:30;5.28;;;2.30;;
76417;SDS011;65250;47.602;19.002;2023-11-21T10:59:58;5.82;;;2.47;;
76417;SDS011;65250;47.602;19.002;2023-11-21T11:02:29;5.57;;;2.53;;
76417;SDS011;65250;47.602;19.002;2023-11-21T11:05:07;7.38;;;3.10;;
76417;SDS011;65250;47.602;19.002;2023-11-21T11:07:38;6.43;;;3.20;;
76417;SDS011;65250;47.602;19.002;2023-11-21T11:10:07;5.05;;;1.95;;
76417;SDS011;65250;47.602;19.002;2023-11-21T11:12:42;4.90;;;2.15;;
76417;SDS011;65250;47.602;19.002;2023-11-21T11:15:12;4.25;;;2.33;;
76417;SDS011;65250;47.602;19.002;2023-11-21T11:17:42;4.95;;;2.25;;
76417;SDS011;65250;47.602;19.002;2023-11-21T11:20:12;4.75;;;2.20;;
76417;SDS011;65250;47.602;19.002;2023-11-21T11:28:19;9.10;;;2.92;;
76417;SDS011;65250;47.602;19.002;2023-11-21T11:36:22;5.63;;;2.28;;
76417;SDS011;65250;47.602;19.002;2023-11-21T11:38:56;5.47;;;2.53;;
76417;SDS011;65250;47.602;19.002;2023-11-21T11:41:37;6.53;;;2.78;;
76417;SDS011;65250;47.602;19.002;2023-11-21T11:44:45;6.47;;;2.22;;
76417;SDS011;65250;47.602;19.002;2023-11-21T11:47:26;5.80;;;2.00;;
76417;SDS011;65250;47.602;19.002;2023-11-21T11:50:09;4.40;;;1.90;;
76417;SDS011;65250;47.602;19.002;2023-11-21T11:52:50;3.70;;;1.83;;
76417;SDS011;65250;47.602;19.002;2023-11-21T11:55:21;6.18;;;2.60;;
76417;SDS011;65250;47.602;19.002;2023-11-21T11:58:01;7.15;;;2.38;;
76417;SDS011;65250;47.602;19.002;2023-11-21T12:00:36;6.28;;;2.60;;
76417;SDS011;65250;47.602;19.002;2023-11-21T12:03:09;6.05;;;1.80;;
76417;SDS011;65250;47.602;19.002;2023-11-21T12:05:38;4.25;;;1.75;;
76417;SDS011;65250;47.602;19.002;2023-11-21T12:08:20;3.03;;;1.50;;
76417;SDS011;65250;47.602;19.002;2023-11-21T12:10:50;3.30;;;1.20;;
76417;SDS011;65250;47.602;19.002;2023-11-21T12:13:18;4.15;;;1.70;;
76417;SDS011;65250;47.602;19.002;2023-11-21T12:15:45;2.60;;;1.70;;
76417;SDS011;65250;47.602;19.002;2023-11-21T12:18:12;4.60;;;1.92;;
76417;SDS011;65250;47.602;19.002;2023-11-21T12:20:40;5.35;;;2.00;;
76417;SDS011;65250;47.602;19.002;2023-11-21T12:23:10;5.03;;;1.77;;
76417;SDS011;65250;47.602;19.002;2023-11-21T12:25:38;4.95;;;1.88;;
76417;SDS011;65250;47.602;19.002;2023-11-21T12:28:11;3.47;;;1.48;;
76417;SDS011;65250;47.602;19.002;2023-11-21T12:30:44;3.10;;;1.55;;
76417;SDS011;65250;47.602;19.002;2023-11-21T12:33:14;8.13;;;2.67;;
76417;SDS011;65250;47.602;19.002;2023-11-21T12:35:48;4.85;;;2.10;;
76417;SDS011;65250;47.602;19.002;2023-11-21T12:38:19;7.13;;;2.13;;
76417;SDS011;65250;47.602;19.002;2023-11-21T12:40:51;9.20;;;2.67;;
76417;SDS011;65250;47.602;19.002;2023-11-21T12:43:22;4.32;;;1.80;;
76417;SDS011;65250;47.602;19.002;2023-11-21T12:46:04;4.30;;;2.60;;
76417;SDS011;65250;47.602;19.002;2023-11-21T12:48:39;6.78;;;2.47;;
76417;SDS011;65250;47.602;19.002;2023-11-21T12:51:10;7.60;;;2.80;;
76417;SDS011;65250;47.602;19.002;2023-11-21T12:53:44;8.30;;;3.00;;
76417;SDS011;65250;47.602;19.002;2023-11-21T12:56:21;8.30;;;2.47;;
76417;SDS011;65250;47.602;19.002;2023-11-21T12:58:57;5.97;;;2.58;;
76417;SDS011;65250;47.602;19.002;2023-11-21T13:01:25;7.88;;;3.08;;
76417;SDS011;65250;47.602;19.002;2023-11-21T13:03:57;5.03;;;2.75;;
76417;SDS011;65250;47.602;19.002;2023-11-21T13:06:25;6.20;;;2.63;;
76417;SDS011;65250;47.602;19.002;2023-11-21T13:08:54;4.03;;;2.10;;
76417;SDS011;65250;47.602;19.002;2023-11-21T13:11:24;7.75;;;2.05;;
76417;SDS011;65250;47.602;19.002;2023-11-21T13:13:52;5.35;;;2.13;;
76417;SDS011;65250;47.602;19.002;2023-11-21T13:16:23;4.68;;;1.85;;
76417;SDS011;65250;47.602;19.002;2023-11-21T13:18:50;5.38;;;1.65;;
76417;SDS011;65250;47.602;19.002;2023-11-21T13:21:23;3.60;;;1.85;;
76417;SDS011;65250;47.602;19.002;2023-11-21T13:23:56;5.20;;;2.05;;
76417;SDS011;65250;47.602;19.002;2023-11-21T13:26:27;3.20;;;1.55;;
76417;SDS011;65250;47.602;19.002;2023-11-21T13:28:57;3.08;;;1.67;;
76417;SDS011;65250;47.602;19.002;2023-11-21T13:31:28;3.58;;;1.52;;
76417;SDS011;65250;47.602;19.002;2023-11-21T13:33:59;4.13;;;1.92;;
76417;SDS011;65250;47.602;19.002;2023-11-21T13:36:32;5.13;;;1.98;;
76417;SDS011;65250;47.602;19.002;2023-11-21T13:39:02;6.85;;;2.17;;
76417;SDS011;65250;47.602;19.002;2023-11-21T13:41:45;8.90;;;1.70;;
76417;SDS011;65250;47.602;19.002;2023-11-21T13:44:14;3.55;;;1.70;;
76417;SDS011;65250;47.602;19.002;2023-11-21T13:46:47;4.70;;;1.08;;
76417;SDS011;65250;47.602;19.002;2023-11-21T13:49:14;3.60;;;1.80;;
76417;SDS011;65250;47.602;19.002;2023-11-21T13:51:43;5.13;;;2.03;;
76417;SDS011;65250;47.602;19.002;2023-11-21T13:54:22;6.40;;;1.80;;
76417;SDS011;65250;47.602;19.002;2023-11-21T13:56:52;4.55;;;1.33;;
76417;SDS011;65250;47.602;19.002;2023-11-21T13:59:22;4.72;;;1.65;;
76417;SDS011;65250;47.602;19.002;2023-11-21T14:01:57;5.80;;;1.40;;
76417;SDS011;65250;47.602;19.002;2023-11-21T14:04:47;4.40;;;1.98;;
76417;SDS011;65250;47.602;19.002;2023-11-21T14:07:27;5.35;;;2.03;;
76417;SDS011;65250;47.602;19.002;2023-11-21T14:10:03;4.05;;;1.77;;
76417;SDS011;65250;47.602;19.002;2023-11-21T14:12:35;5.93;;;2.28;;
76417;SDS011;65250;47.602;19.002;2023-11-21T14:15:06;6.10;;;2.00;;
76417;SDS011;65250;47.602;19.002;2023-11-21T14:17:37;5.00;;;2.13;;
76417;SDS011;65250;47.602;19.002;2023-11-21T14:20:09;4.00;;;1.70;;
76417;SDS011;65250;47.602;19.002;2023-11-21T14:22:44;5.03;;;1.70;;
76417;SDS011;65250;47.602;19.002;2023-11-21T14:25:15;4.18;;;2.00;;
76417;SDS011;65250;47.602;19.002;2023-11-21T14:27:46;3.72;;;1.55;;
76417;SDS011;65250;47.602;19.002;2023-11-21T14:30:15;3.72;;;1.13;;
76417;SDS011;65250;47.602;19.002;2023-11-21T14:32:46;5.43;;;2.00;;
76417;SDS011;65250;47.602;19.002;2023-11-21T14:35:13;6.22;;;2.10;;
76417;SDS011;65250;47.602;19.002;2023-11-21T14:37:41;4.00;;;1.98;;
76417;SDS011;65250;47.602;19.002;2023-11-21T14:40:11;4.70;;;1.92;;
76417;SDS011;65250;47.602;19.002;2023-11-21T14:42:50;7.38;;;1.77;;
76417;SDS011;65250;47.602;19.002;2023-11-21T14:45:20;5.05;;;2.03;;
76417;SDS011;65250;47.602;19.002;2023-11-21T14:47:50;4.75;;;1.52;;
76417;SDS011;65250;47.602;19.002;2023-11-21T14:50:42;5.85;;;1.67;;
76417;SDS011;65250;47.602;19.002;2023-11-21T14:53:10;5.13;;;1.13;;
76417;SDS011;65250;47.602;19.002;2023-11-21T14:55:40;2.80;;;0.98;;
76417;SDS011;65250;47.602;19.002;2023-11-21T14:58:26;17.50;;;3.17;;
76417;SDS011;65250;47.602;19.002;2023-11-21T15:00:59;14.55;;;3.08;;
76417;SDS011;65250;47.602;19.002;2023-11-21T15:03:30;4.05;;;2.03;;
76417;SDS011;65250;47.602;19.002;2023-11-21T15:06:02;3.97;;;1.20;;
76417;SDS011;65250;47.602;19.002;2023-11-21T15:08:54;7.45;;;2.72;;
76417;SDS011;65250;47.602;19.002;2023-11-21T15:12:08;9.18;;;3.88;;